Time;durP1;ratioP1;P1;durP2;ratioP2;P2;SDS_P1;SDS_P2;PMS_P1;PMS_P2;Temp;Humidity;BMP_temperature;BMP_pressure;BME280_temperature;BME280_humidity;BME280_pressure;Samples;Min_cycle;Max_cycle;Signal;HPM_P1;HPM_P2
2023/01/26 00:01:08;;;;;;;27.13;15.00;;;;;;;;;;4417886;32;318512;-83
2023/01/26 00:03:34;;;;;;;23.03;14.20;;;;;;;;;;4406926;32;318320;-83
2023/01/26 00:06:03;;;;;;;22.20;16.03;;;;;;;;;;4416320;32;330400;-84
2023/01/26 00:08:30;;;;;;;25.97;17.23;;;;;;;;;;4406827;32;318550;-84
2023/01/26 00:10:57;;;;;;;20.40;13.37;;;;;;;;;;4417857;32;318414;-83
2023/01/26 00:13:24;;;;;;;19.87;12.93;;;;;;;;;;4407812;32;318383;-84
2023/01/26 00:15:50;;;;;;;23.60;15.60;;;;;;;;;;4417113;32;318404;-83
2023/01/26 00:18:18;;;;;;;25.87;14.60;;;;;;;;;;4416396;32;317713;-84
2023/01/26 00:20:45;;;;;;;20.33;13.13;;;;;;;;;;4403563;32;417321;-84
2023/01/26 00:23:12;;;;;;;15.90;12.93;;;;;;;;;;4417660;32;318441;-83
2023/01/26 00:25:40;;;;;;;17.30;12.47;;;;;;;;;;4407653;32;318819;-83
2023/01/26 00:28:06;;;;;;;17.40;11.43;;;;;;;;;;4416362;32;318341;-84
2023/01/26 00:30:33;;;;;;;19.27;13.57;;;;;;;;;;4405024;32;343995;-84
2023/01/26 00:33:00;;;;;;;16.47;13.23;;;;;;;;;;4417579;32;318137;-84
2023/01/26 00:35:28;;;;;;;15.50;11.20;;;;;;;;;;4407525;32;318231;-84
2023/01/26 00:37:55;;;;;;;18.73;13.07;;;;;;;;;;4417424;32;318445;-84
2023/01/26 00:40:23;;;;;;;24.17;15.30;;;;;;;;;;4406326;32;318256;-83
2023/01/26 00:42:53;;;;;;;16.87;12.70;;;;;;;;;;4416032;32;333121;-83
2023/01/26 00:45:19;;;;;;;19.30;13.03;;;;;;;;;;4406517;32;318376;-84
2023/01/26 00:47:46;;;;;;;26.03;15.70;;;;;;;;;;4416255;32;317598;-84
2023/01/26 00:50:13;;;;;;;16.13;12.70;;;;;;;;;;4417441;32;317724;-83
2023/01/26 00:52:41;;;;;;;23.73;17.33;;;;;;;;;;4405645;32;341428;-84
2023/01/26 00:55:09;;;;;;;16.67;13.67;;;;;;;;;;4415976;32;318209;-84
2023/01/26 00:57:35;;;;;;;19.47;14.10;;;;;;;;;;4406101;32;318413;-83
2023/01/26 01:00:02;;;;;;;16.50;12.70;;;;;;;;;;4417263;32;318469;-84
2023/01/26 01:02:29;;;;;;;17.10;11.83;;;;;;;;;;4406294;32;317551;-84
2023/01/26 01:04:56;;;;;;;15.40;11.87;;;;;;;;;;4417346;32;318383;-84
2023/01/26 01:07:23;;;;;;;15.13;11.27;;;;;;;;;;4407319;32;317605;-83
2023/01/26 01:09:51;;;;;;;21.00;13.30;;;;;;;;;;4416201;32;318264;-83
2023/01/26 01:12:17;;;;;;;16.60;10.10;;;;;;;;;;4416123;32;318575;-84
2023/01/26 01:14:44;;;;;;;17.90;11.10;;;;;;;;;;4403330;32;417250;-84
2023/01/26 01:17:11;;;;;;;18.47;12.03;;;;;;;;;;4417345;32;318181;-84
2023/01/26 01:19:38;;;;;;;14.50;9.83;;;;;;;;;;4407112;32;318280;-84
2023/01/26 01:22:05;;;;;;;15.87;12.23;;;;;;;;;;4416095;32;316716;-84
2023/01/26 01:24:33;;;;;;;17.77;11.57;;;;;;;;;;4405336;32;347189;-84
2023/01/26 01:27:01;;;;;;;15.43;10.90;;;;;;;;;;4417044;32;317636;-84
2023/01/26 01:29:28;;;;;;;15.63;11.97;;;;;;;;;;4407283;32;318222;-84
2023/01/26 01:31:55;;;;;;;18.00;11.93;;;;;;;;;;4417264;32;318360;-84
2023/01/26 01:34:21;;;;;;;14.33;10.63;;;;;;;;;;4406036;32;318661;-84
2023/01/26 01:36:48;;;;;;;16.07;11.57;;;;;;;;;;4417234;32;317376;-84
2023/01/26 01:39:15;;;;;;;14.50;10.30;;;;;;;;;;4416856;32;318633;-84
2023/01/26 01:41:42;;;;;;;18.90;13.07;;;;;;;;;;4408013;32;318302;-84
2023/01/26 01:44:18;;;;;;;21.00;12.67;;;;;;;;;;4418776;32;318322;-84
2023/01/26 01:46:49;;;;;;;15.07;12.43;;;;;;;;;;4406645;32;417529;-84
2023/01/26 01:49:20;;;;;;;15.50;11.80;;;;;;;;;;4418919;32;317738;-84
2023/01/26 01:51:51;;;;;;;18.70;12.93;;;;;;;;;;4405933;32;417601;-84
2023/01/26 01:54:25;;;;;;;21.17;12.07;;;;;;;;;;4419737;32;318040;-84
2023/01/26 01:56:56;;;;;;;16.67;12.87;;;;;;;;;;4406728;32;416867;-84
2023/01/26 01:59:25;;;;;;;14.20;11.27;;;;;;;;;;4407201;32;323413;-84
2023/01/26 02:01:52;;;;;;;20.30;13.73;;;;;;;;;;4419734;32;317486;-84
2023/01/26 02:04:21;;;;;;;16.03;10.77;;;;;;;;;;4399129;32;320890;-84
2023/01/26 02:06:50;;;;;;;12.00;10.20;;;;;;;;;;4419722;32;318221;-84
2023/01/26 02:12:08;;;;;;;17.73;13.30;;;;;;;;;;4407788;32;388012;-84
2023/01/26 02:14:36;;;;;;;17.13;13.70;;;;;;;;;;4409692;32;318111;-84
2023/01/26 02:17:03;;;;;;;17.33;13.07;;;;;;;;;;4419501;32;322941;-84
2023/01/26 02:19:39;;;;;;;16.50;12.40;;;;;;;;;;4409424;32;318584;-84
2023/01/26 02:22:10;;;;;;;17.40;12.60;;;;;;;;;;4418490;32;317483;-84
2023/01/26 02:24:40;;;;;;;16.83;11.93;;;;;;;;;;4408354;32;321750;-84
2023/01/26 02:27:08;;;;;;;16.20;12.30;;;;;;;;;;4418567;32;318395;-84
2023/01/26 02:29:34;;;;;;;15.87;11.20;;;;;;;;;;4408065;32;318365;-84
2023/01/26 02:32:01;;;;;;;16.70;12.33;;;;;;;;;;4418193;32;318162;-84
2023/01/26 02:34:28;;;;;;;15.73;11.70;;;;;;;;;;4409313;32;318231;-84
2023/01/26 02:36:59;;;;;;;16.17;12.37;;;;;;;;;;4419241;32;318077;-84
2023/01/26 02:39:43;;;;;;;18.43;13.37;;;;;;;;;;4407966;32;318225;-84
2023/01/26 02:44:55;;;;;;;15.90;11.83;;;;;;;;;;4406251;32;388830;-84
2023/01/26 02:47:22;;;;;;;18.00;13.67;;;;;;;;;;4407783;32;361908;-84
2023/01/26 02:49:49;;;;;;;20.27;12.63;;;;;;;;;;4419347;32;317728;-83
2023/01/26 02:52:20;;;;;;;22.07;12.77;;;;;;;;;;4418224;32;317485;-84
2023/01/26 02:57:34;;;;;;;21.53;15.70;;;;;;;;;;4409074;32;318020;-83
2023/01/26 03:00:01;;;;;;;19.47;13.77;;;;;;;;;;4417819;32;317563;-83
2023/01/26 03:02:28;;;;;;;24.33;17.63;;;;;;;;;;4407811;32;318489;-83
2023/01/26 03:04:54;;;;;;;22.37;15.20;;;;;;;;;;4417392;32;333758;-83
2023/01/26 03:07:21;;;;;;;20.17;13.33;;;;;;;;;;4408838;32;318636;-84
2023/01/26 03:09:48;;;;;;;15.63;13.23;;;;;;;;;;4418576;32;318262;-83
2023/01/26 03:12:14;;;;;;;16.77;13.63;;;;;;;;;;4417751;32;318368;-83
2023/01/26 03:14:42;;;;;;;19.53;12.97;;;;;;;;;;4408744;32;318174;-84
2023/01/26 03:17:09;;;;;;;16.77;12.93;;;;;;;;;;4418686;32;318518;-83
2023/01/26 03:27:49;;;;;;;16.63;11.90;;;;;;;;;;4406518;32;389043;-83
2023/01/26 03:30:19;;;;;;;20.30;13.57;;;;;;;;;;4418474;32;317608;-83
2023/01/26 03:32:48;;;;;;;18.27;14.30;;;;;;;;;;4404396;32;417592;-83
2023/01/26 03:35:21;;;;;;;17.63;13.57;;;;;;;;;;4418598;32;318284;-83
2023/01/26 03:37:53;;;;;;;17.17;13.93;;;;;;;;;;4405439;32;417008;-83
2023/01/26 03:56:50;;;;;;;15.20;10.93;;;;;;;;;;4405897;32;389027;-83
2023/01/26 03:59:36;;;;;;;16.93;11.93;;;;;;;;;;4416876;32;318619;-83
2023/01/26 04:10:18;;;;;;;22.47;13.73;;;;;;;;;;4417956;32;318571;-83
2023/01/26 04:23:40;;;;;;;14.60;11.67;;;;;;;;;;4374148;32;317671;-83
2023/01/26 04:26:06;;;;;;;17.47;11.07;;;;;;;;;;4388866;32;318467;-83
2023/01/26 04:28:34;;;;;;;12.13;9.77;;;;;;;;;;4407640;32;318593;-83
2023/01/26 04:31:03;;;;;;;15.40;11.13;;;;;;;;;;4417755;32;316578;-83
2023/01/26 04:33:31;;;;;;;13.10;8.70;;;;;;;;;;4406551;32;318637;-83
2023/01/26 04:36:03;;;;;;;9.90;8.23;;;;;;;;;;4417640;32;316789;-83
2023/01/26 04:38:30;;;;;;;16.57;9.40;;;;;;;;;;4406705;32;315540;-83
2023/01/26 04:40:56;;;;;;;13.10;10.10;;;;;;;;;;4416114;32;316556;-82
2023/01/26 04:43:23;;;;;;;13.27;9.60;;;;;;;;;;4407606;32;318434;-82
2023/01/26 04:45:58;;;;;;;10.27;8.20;;;;;;;;;;4417459;32;316639;-82
2023/01/26 04:48:25;;;;;;;9.83;8.07;;;;;;;;;;4407690;32;317473;-82
2023/01/26 04:50:57;;;;;;;11.33;8.87;;;;;;;;;;4417596;32;315511;-82
2023/01/26 04:53:24;;;;;;;11.87;9.13;;;;;;;;;;4406291;32;317236;-82
2023/01/26 04:55:51;;;;;;;14.90;10.00;;;;;;;;;;4417093;32;317050;-82
2023/01/26 04:58:18;;;;;;;11.47;9.00;;;;;;;;;;4416261;32;318269;-83
2023/01/26 05:00:45;;;;;;;16.03;10.60;;;;;;;;;;4403435;32;412548;-82
2023/01/26 05:03:12;;;;;;;15.33;8.77;;;;;;;;;;4416121;32;317542;-82
2023/01/26 05:05:39;;;;;;;9.13;7.90;;;;;;;;;;4407625;32;317499;-83
2023/01/26 05:08:07;;;;;;;10.73;7.90;;;;;;;;;;4417555;32;316331;-82
2023/01/26 05:10:34;;;;;;;10.60;8.03;;;;;;;;;;4398636;32;316601;-82
2023/01/26 05:13:01;;;;;;;12.57;9.37;;;;;;;;;;4415827;32;316614;-82
2023/01/26 05:15:27;;;;;;;15.60;11.13;;;;;;;;;;4406492;32;317474;-82
2023/01/26 05:17:54;;;;;;;16.10;11.67;;;;;;;;;;4420076;32;317585;-82
2023/01/26 05:20:21;;;;;;;16.47;11.70;;;;;;;;;;4410081;32;318491;-82
2023/01/26 05:22:48;;;;;;;16.43;11.70;;;;;;;;;;4419097;32;317462;-82
2023/01/26 05:25:16;;;;;;;18.07;13.50;;;;;;;;;;4419186;32;357024;-82
2023/01/26 05:27:43;;;;;;;24.33;16.40;;;;;;;;;;4401281;32;318233;-82
2023/01/26 05:30:11;;;;;;;29.07;16.07;;;;;;;;;;4417781;32;327240;-82
2023/01/26 05:32:38;;;;;;;25.83;15.80;;;;;;;;;;4408944;32;318407;-84
2023/01/26 05:35:06;;;;;;;24.70;16.37;;;;;;;;;;4418673;32;317535;-83
2023/01/26 05:37:33;;;;;;;27.53;16.43;;;;;;;;;;4408704;32;317535;-84
2023/01/26 05:40:00;;;;;;;28.17;16.40;;;;;;;;;;4419669;32;317512;-84
2023/01/26 05:42:28;;;;;;;16.53;11.67;;;;;;;;;;4409858;32;318208;-84
2023/01/26 05:44:55;;;;;;;16.57;11.73;;;;;;;;;;4419471;32;317483;-84
2023/01/26 05:47:22;;;;;;;14.33;10.80;;;;;;;;;;4409658;32;317583;-84
2023/01/26 05:49:49;;;;;;;17.50;12.10;;;;;;;;;;4419556;32;317745;-83
2023/01/26 05:52:18;;;;;;;18.83;13.67;;;;;;;;;;4419587;32;318315;-83
2023/01/26 05:54:45;;;;;;;14.40;11.13;;;;;;;;;;4404827;32;417159;-84
2023/01/26 05:57:12;;;;;;;24.50;17.63;;;;;;;;;;4418440;32;349807;-83
2023/01/26 05:59:40;;;;;;;31.63;23.03;;;;;;;;;;4407272;32;352725;-84
2023/01/26 06:02:07;;;;;;;26.80;19.67;;;;;;;;;;4418083;32;317553;-83
2023/01/26 06:04:33;;;;;;;23.33;16.03;;;;;;;;;;4407941;32;318555;-83
2023/01/26 06:07:00;;;;;;;21.33;14.57;;;;;;;;;;4418775;32;317633;-85
2023/01/26 06:09:27;;;;;;;23.30;15.30;;;;;;;;;;4407166;32;317474;-83
2023/01/26 06:11:54;;;;;;;21.20;15.40;;;;;;;;;;4417262;32;317455;-84
2023/01/26 06:14:21;;;;;;;22.40;16.37;;;;;;;;;;4391394;32;333562;-84
2023/01/26 06:16:49;;;;;;;23.17;15.20;;;;;;;;;;4418970;32;317690;-84
2023/01/26 06:19:16;;;;;;;21.20;13.90;;;;;;;;;;4417725;32;318262;-82
2023/01/26 06:21:42;;;;;;;18.37;14.30;;;;;;;;;;4408768;32;317752;-84
2023/01/26 06:24:09;;;;;;;17.27;12.03;;;;;;;;;;4418604;32;317546;-84
2023/01/26 06:26:36;;;;;;;14.27;10.50;;;;;;;;;;4408518;32;317804;-84
2023/01/26 06:29:03;;;;;;;17.43;11.40;;;;;;;;;;4418331;32;318567;-84
2023/01/26 06:31:30;;;;;;;20.47;13.73;;;;;;;;;;4407435;32;317608;-84
2023/01/26 06:33:58;;;;;;;29.07;21.93;;;;;;;;;;4418666;32;317456;-84
2023/01/26 06:36:25;;;;;;;20.63;14.20;;;;;;;;;;4407165;32;318384;-84
2023/01/26 06:38:52;;;;;;;14.47;10.43;;;;;;;;;;4418388;32;317449;-84
2023/01/26 06:41:19;;;;;;;17.83;12.83;;;;;;;;;;4400064;32;318378;-83
2023/01/26 06:43:48;;;;;;;22.33;15.73;;;;;;;;;;4416566;32;317479;-84
2023/01/26 06:46:15;;;;;;;13.67;10.73;;;;;;;;;;4418146;32;318226;-84
2023/01/26 06:48:42;;;;;;;17.40;11.93;;;;;;;;;;4408347;32;317541;-83
2023/01/26 06:54:05;;;;;;;28.73;14.33;;;;;;;;;;4449228;31;20261;-88
2023/01/26 06:56:33;;;;;;;21.70;13.63;;;;;;;;;;4419846;32;316495;-86
2023/01/26 06:58:59;;;;;;;19.20;13.03;;;;;;;;;;4472652;26;317920;-83
2023/01/26 07:01:27;;;;;;;19.50;12.90;;;;;;;;;;4404896;32;317538;-83
2023/01/26 07:03:54;;;;;;;16.83;12.30;;;;;;;;;;4414248;32;317979;-84
2023/01/26 07:06:21;;;;;;;21.80;14.90;;;;;;;;;;4404669;32;318170;-84
2023/01/26 07:08:48;;;;;;;22.40;15.30;;;;;;;;;;4414230;32;318397;-85
2023/01/26 07:11:18;;;;;;;55.83;28.40;;;;;;;;;;4413464;32;318442;-84
2023/01/26 07:13:46;;;;;;;46.40;24.67;;;;;;;;;;4401627;32;417125;-86
2023/01/26 07:16:16;;;;;;;41.33;25.43;;;;;;;;;;4413098;32;346871;-87
2023/01/26 07:18:43;;;;;;;33.30;19.43;;;;;;;;;;4402798;32;317595;-85
2023/01/26 07:21:12;;;;;;;25.47;16.90;;;;;;;;;;4413438;32;317806;-85
2023/01/26 07:23:38;;;;;;;27.53;11.20;;;;;;;;;;4403718;32;317524;-85
2023/01/26 07:26:05;;;;;;;19.17;12.10;;;;;;;;;;4414118;32;318074;-86
2023/01/26 07:28:34;;;;;;;18.50;12.47;;;;;;;;;;4404012;32;317622;-85
2023/01/26 07:31:02;;;;;;;20.23;13.53;;;;;;;;;;4412867;32;318045;-85
2023/01/26 07:33:29;;;;;;;20.93;14.07;;;;;;;;;;4402488;32;318249;-85
2023/01/26 07:35:59;;;;;;;52.20;34.63;;;;;;;;;;4413669;32;318389;-85
2023/01/26 07:38:27;;;;;;;80.33;48.80;;;;;;;;;;4403737;32;318425;-84
2023/01/26 07:40:54;;;;;;;36.60;25.13;;;;;;;;;;4413609;32;317763;-85
2023/01/26 07:43:21;;;;;;;15.33;11.90;;;;;;;;;;4403060;32;318127;-85
2023/01/26 07:45:51;;;;;;;26.83;14.63;;;;;;;;;;4414001;32;318615;-85
2023/01/26 07:48:18;;;;;;;23.50;16.00;;;;;;;;;;4412372;32;317613;-85
2023/01/26 07:50:46;;;;;;;14.80;10.27;;;;;;;;;;4400648;32;417116;-85
2023/01/26 07:53:18;;;;;;;15.53;11.87;;;;;;;;;;4412914;32;318327;-85
2023/01/26 07:55:45;;;;;;;15.53;10.07;;;;;;;;;;4401404;32;416874;-85
2023/01/26 07:58:12;;;;;;;22.03;16.07;;;;;;;;;;4413685;32;317991;-84
2023/01/26 08:00:39;;;;;;;19.70;13.13;;;;;;;;;;4418245;32;318273;-85
2023/01/26 08:03:08;;;;;;;16.03;11.17;;;;;;;;;;4427729;32;318183;-85
2023/01/26 08:05:37;;;;;;;18.23;13.30;;;;;;;;;;4408641;32;318329;-85
2023/01/26 08:08:04;;;;;;;12.00;9.30;;;;;;;;;;4417226;32;318191;-85
2023/01/26 08:10:31;;;;;;;13.13;10.47;;;;;;;;;;4409258;32;316500;-85
2023/01/26 08:12:59;;;;;;;13.47;10.13;;;;;;;;;;4418464;32;318305;-85
2023/01/26 08:15:26;;;;;;;18.97;13.27;;;;;;;;;;4407730;32;318314;-85
2023/01/26 08:17:54;;;;;;;18.33;13.13;;;;;;;;;;4417671;32;318359;-85
2023/01/26 08:20:22;;;;;;;18.30;12.40;;;;;;;;;;4408551;32;329013;-85
2023/01/26 08:22:49;;;;;;;15.67;11.37;;;;;;;;;;4416556;32;337066;-85
2023/01/26 08:25:15;;;;;;;21.67;13.83;;;;;;;;;;4418530;32;317486;-85
2023/01/26 08:27:42;;;;;;;25.23;16.97;;;;;;;;;;4407840;32;318269;-85
2023/01/26 08:30:10;;;;;;;44.97;22.17;;;;;;;;;;4417218;32;318233;-85
2023/01/26 08:32:37;;;;;;;56.13;24.60;;;;;;;;;;4406681;32;317684;-85
2023/01/26 08:35:04;;;;;;;37.80;19.47;;;;;;;;;;4416978;32;327631;-85
2023/01/26 08:37:33;;;;;;;31.47;15.97;;;;;;;;;;4408010;32;317465;-85
2023/01/26 08:40:00;;;;;;;15.17;10.77;;;;;;;;;;4416561;32;342170;-85
2023/01/26 08:42:27;;;;;;;16.27;11.60;;;;;;;;;;4408161;32;318617;-85
2023/01/26 08:44:53;;;;;;;12.73;9.67;;;;;;;;;;4418179;32;317820;-85
2023/01/26 08:47:20;;;;;;;20.07;13.40;;;;;;;;;;4407296;32;317264;-84
2023/01/26 08:49:47;;;;;;;18.10;10.97;;;;;;;;;;4417291;32;318143;-85
2023/01/26 08:52:13;;;;;;;17.40;11.27;;;;;;;;;;4418459;32;317614;-85
2023/01/26 08:54:42;;;;;;;16.07;10.23;;;;;;;;;;4408341;32;318372;-85
2023/01/26 08:57:08;;;;;;;17.33;10.97;;;;;;;;;;4418102;32;317577;-84
2023/01/26 08:59:35;;;;;;;26.73;15.60;;;;;;;;;;4407261;32;318348;-84
2023/01/26 09:02:02;;;;;;;71.53;32.10;;;;;;;;;;4416537;32;318166;-84
2023/01/26 09:04:28;;;;;;;23.27;11.43;;;;;;;;;;4407843;32;318274;-84
2023/01/26 09:06:55;;;;;;;35.27;16.07;;;;;;;;;;4418243;32;317768;-84
2023/01/26 09:09:22;;;;;;;17.33;10.90;;;;;;;;;;4406746;32;318716;-85
2023/01/26 09:11:50;;;;;;;15.87;10.00;;;;;;;;;;4416852;32;317484;-84
2023/01/26 09:14:17;;;;;;;97.43;41.57;;;;;;;;;;4416271;32;317393;-85
2023/01/26 09:16:44;;;;;;;77.03;32.63;;;;;;;;;;4405799;32;324845;-85
2023/01/26 09:19:10;;;;;;;22.97;14.97;;;;;;;;;;4417902;32;318463;-85
2023/01/26 09:21:37;;;;;;;22.33;16.13;;;;;;;;;;4408171;32;317539;-85
2023/01/26 09:24:05;;;;;;;23.03;14.93;;;;;;;;;;4416738;32;318769;-85
2023/01/26 09:26:32;;;;;;;31.40;19.33;;;;;;;;;;4408178;32;318106;-85
2023/01/26 09:29:00;;;;;;;19.90;13.07;;;;;;;;;;4417298;32;317509;-85
2023/01/26 09:31:26;;;;;;;20.30;13.03;;;;;;;;;;4407821;32;317368;-85
2023/01/26 09:33:53;;;;;;;25.63;16.27;;;;;;;;;;4417287;32;317700;-85
2023/01/26 09:36:20;;;;;;;38.53;23.57;;;;;;;;;;4406170;32;318274;-85
2023/01/26 09:38:47;;;;;;;87.87;55.23;;;;;;;;;;4416045;32;317566;-85
2023/01/26 09:41:48;;;;;;;36.90;23.00;;;;;;;;;;4417801;32;318325;-85
2023/01/26 09:44:21;;;;;;;34.07;20.33;;;;;;;;;;4368237;32;417753;-85
2023/01/26 09:47:00;;;;;;;34.40;19.27;;;;;;;;;;4404929;32;417808;-86
2023/01/26 09:49:32;;;;;;;66.83;52.57;;;;;;;;;;4408024;32;318200;-85
2023/01/26 09:52:04;;;;;;;36.70;19.73;;;;;;;;;;4416585;32;318634;-85
2023/01/26 09:54:35;;;;;;;24.37;16.73;;;;;;;;;;4406259;32;320647;-85
2023/01/26 09:57:09;;;;;;;26.63;17.63;;;;;;;;;;4417411;32;318369;-86
2023/01/26 09:59:44;;;;;;;30.53;18.70;;;;;;;;;;4407167;32;318524;-86
2023/01/26 10:02:23;;;;;;;30.07;17.63;;;;;;;;;;4417401;32;317577;-86
2023/01/26 10:04:55;;;;;;;35.97;19.90;;;;;;;;;;4402812;32;418507;-86
2023/01/26 10:07:22;;;;;;;31.73;20.10;;;;;;;;;;4405902;32;317506;-86
2023/01/26 10:09:51;;;;;;;36.80;23.77;;;;;;;;;;4415755;32;317530;-85
2023/01/26 10:12:22;;;;;;;33.63;19.83;;;;;;;;;;4416208;32;318361;-86
2023/01/26 10:14:53;;;;;;;26.70;17.67;;;;;;;;;;4403878;32;418194;-85
2023/01/26 10:17:26;;;;;;;20.57;14.80;;;;;;;;;;4407170;32;318217;-86
2023/01/26 10:19:59;;;;;;;17.87;13.53;;;;;;;;;;4415948;32;318280;-86
2023/01/26 10:22:34;;;;;;;12.83;10.10;;;;;;;;;;4406943;32;318344;-85
2023/01/26 10:25:00;;;;;;;12.73;8.93;;;;;;;;;;4417125;32;317672;-85
2023/01/26 10:27:28;;;;;;;10.50;7.93;;;;;;;;;;4405831;32;316473;-85
2023/01/26 10:29:56;;;;;;;8.53;6.90;;;;;;;;;;4417056;32;317282;-85
2023/01/26 10:32:24;;;;;;;9.77;7.43;;;;;;;;;;4397544;32;316175;-85
2023/01/26 10:34:52;;;;;;;10.63;8.53;;;;;;;;;;4417019;32;316373;-85
2023/01/26 10:37:24;;;;;;;12.93;9.80;;;;;;;;;;4417364;32;316684;-86
2023/01/26 10:39:59;;;;;;;15.43;10.40;;;;;;;;;;4404764;32;416051;-85
2023/01/26 10:42:29;;;;;;;12.70;10.90;;;;;;;;;;4405879;32;331598;-86
2023/01/26 10:44:59;;;;;;;10.73;8.33;;;;;;;;;;4416312;32;317801;-85
2023/01/26 10:47:26;;;;;;;9.90;8.03;;;;;;;;;;4407358;32;317581;-86
2023/01/26 10:49:53;;;;;;;14.03;11.43;;;;;;;;;;4416861;32;315938;-86
2023/01/26 10:52:21;;;;;;;85.37;39.60;;;;;;;;;;4407011;32;318295;-86
2023/01/26 10:54:49;;;;;;;43.37;23.10;;;;;;;;;;4416327;32;318355;-86
2023/01/26 10:57:18;;;;;;;15.67;11.30;;;;;;;;;;4417096;32;317383;-86
2023/01/26 10:59:51;;;;;;;13.60;10.43;;;;;;;;;;4402562;32;417046;-86
2023/01/26 11:02:23;;;;;;;13.47;9.93;;;;;;;;;;4416920;32;317614;-86
2023/01/26 11:05:19;;;;;;;11.20;8.23;;;;;;;;;;4404086;32;416770;-86
2023/01/26 11:07:48;;;;;;;12.90;9.37;;;;;;;;;;4402874;32;415767;-86
2023/01/26 11:10:25;;;;;;;12.20;9.27;;;;;;;;;;4417024;32;316515;-85
2023/01/26 11:13:06;;;;;;;14.63;10.33;;;;;;;;;;4404040;32;417519;-86
2023/01/26 11:15:37;;;;;;;14.40;10.93;;;;;;;;;;4406952;32;317392;-85
2023/01/26 11:18:13;;;;;;;16.37;12.27;;;;;;;;;;4416758;32;318290;-86
2023/01/26 11:20:59;;;;;;;12.67;9.57;;;;;;;;;;4406657;32;318324;-85
2023/01/26 11:23:47;;;;;;;13.53;10.37;;;;;;;;;;4405462;32;316563;-86
2023/01/26 11:26:31;;;;;;;22.63;13.33;;;;;;;;;;4416855;32;318530;-86
2023/01/26 11:29:17;;;;;;;24.00;14.27;;;;;;;;;;4402732;32;418322;-86
2023/01/26 11:31:54;;;;;;;24.97;13.77;;;;;;;;;;4402295;32;418502;-86
2023/01/26 11:34:33;;;;;;;19.23;13.40;;;;;;;;;;4404515;32;324002;-86
2023/01/26 11:37:18;;;;;;;20.00;14.17;;;;;;;;;;4416975;32;318255;-86
2023/01/26 11:39:53;;;;;;;14.23;10.30;;;;;;;;;;4398707;32;418356;-86
2023/01/26 11:42:25;;;;;;;12.93;10.00;;;;;;;;;;4410020;32;318365;-86
2023/01/26 11:45:17;;;;;;;20.73;14.10;;;;;;;;;;4418542;32;317674;-86
2023/01/26 11:47:58;;;;;;;19.20;12.60;;;;;;;;;;4405192;32;418372;-86
2023/01/26 11:50:36;;;;;;;16.37;11.53;;;;;;;;;;4409652;32;318108;-86
2023/01/26 11:53:21;;;;;;;19.70;13.07;;;;;;;;;;4419402;32;317783;-87
2023/01/26 11:55:59;;;;;;;18.63;13.17;;;;;;;;;;4406688;32;417955;-86
2023/01/26 11:58:33;;;;;;;25.13;17.03;;;;;;;;;;4408925;32;319301;-87
2023/01/26 12:01:02;;;;;;;35.43;20.97;;;;;;;;;;4418996;32;318433;-86
2023/01/26 12:03:36;;;;;;;43.70;26.67;;;;;;;;;;4408774;32;317485;-87
2023/01/26 12:06:08;;;;;;;38.97;25.97;;;;;;;;;;4417625;32;318384;-86
2023/01/26 12:08:39;;;;;;;42.70;25.00;;;;;;;;;;4408863;32;317629;-86
2023/01/26 12:11:24;;;;;;;35.03;24.47;;;;;;;;;;4418938;32;318228;-86
2023/01/26 12:14:02;;;;;;;43.80;27.43;;;;;;;;;;4405841;32;417844;-86
2023/01/26 12:16:37;;;;;;;39.33;25.13;;;;;;;;;;4409074;32;318512;-86
2023/01/26 12:19:12;;;;;;;28.87;19.77;;;;;;;;;;4417548;32;318488;-86
2023/01/26 12:21:44;;;;;;;28.33;18.13;;;;;;;;;;4408974;32;318110;-86
2023/01/26 12:24:19;;;;;;;22.50;15.33;;;;;;;;;;4418683;32;317580;-86
2023/01/26 12:26:50;;;;;;;33.67;20.57;;;;;;;;;;4404910;32;418072;-86
2023/01/26 12:29:22;;;;;;;33.80;20.10;;;;;;;;;;4418660;32;318262;-86
2023/01/26 12:31:55;;;;;;;31.77;21.47;;;;;;;;;;4405277;32;419533;-84
2023/01/26 12:34:26;;;;;;;40.83;27.90;;;;;;;;;;4406260;32;339292;-84
2023/01/26 12:37:03;;;;;;;31.77;21.47;;;;;;;;;;4417955;32;318535;-84
2023/01/26 12:39:34;;;;;;;26.27;17.63;;;;;;;;;;4407543;32;318640;-85
2023/01/26 12:42:17;;;;;;;31.63;20.90;;;;;;;;;;4418885;32;318241;-85
2023/01/26 12:44:46;;;;;;;48.80;28.03;;;;;;;;;;4407275;32;317518;-85
2023/01/26 12:47:19;;;;;;;169.90;84.97;;;;;;;;;;4417551;32;318516;-85
2023/01/26 12:49:54;;;;;;;46.57;30.50;;;;;;;;;;4404539;32;417784;-85
2023/01/26 12:52:28;;;;;;;32.07;21.90;;;;;;;;;;4407760;32;318281;-85
2023/01/26 12:55:03;;;;;;;96.10;46.53;;;;;;;;;;4418855;32;317621;-85
2023/01/26 12:57:36;;;;;;;42.60;25.57;;;;;;;;;;4407787;32;317498;-85
2023/01/26 13:00:08;;;;;;;55.57;27.07;;;;;;;;;;4418920;32;318267;-85
2023/01/26 13:02:36;;;;;;;181.93;90.73;;;;;;;;;;4408812;32;317644;-85
2023/01/26 13:05:04;;;;;;;59.20;35.03;;;;;;;;;;4417583;32;318513;-84
2023/01/26 13:07:37;;;;;;;33.43;21.60;;;;;;;;;;4408745;32;318259;-85
2023/01/26 13:10:22;;;;;;;26.13;18.00;;;;;;;;;;4418850;32;317868;-85
2023/01/26 13:12:50;;;;;;;27.03;17.53;;;;;;;;;;4405880;32;417104;-84
2023/01/26 13:15:19;;;;;;;21.67;17.00;;;;;;;;;;4417276;32;317420;-85
2023/01/26 13:17:53;;;;;;;27.33;18.37;;;;;;;;;;4405675;32;416644;-84
2023/01/26 13:20:45;;;;;;;28.87;19.70;;;;;;;;;;4408799;32;318411;-85
2023/01/26 13:23:39;;;;;;;28.90;17.80;;;;;;;;;;4418467;32;318142;-85
2023/01/26 13:26:16;;;;;;;22.97;16.40;;;;;;;;;;4403276;32;419233;-83
2023/01/26 13:28:43;;;;;;;22.57;15.07;;;;;;;;;;4407093;32;318478;-83
2023/01/26 13:31:11;;;;;;;21.23;14.93;;;;;;;;;;4418378;32;317398;-83
2023/01/26 13:33:39;;;;;;;24.47;16.53;;;;;;;;;;4408390;32;318595;-83
2023/01/26 13:36:14;;;;;;;23.17;14.77;;;;;;;;;;4417214;32;317660;-84
2023/01/26 13:38:44;;;;;;;21.73;15.87;;;;;;;;;;4408273;32;318526;-83
2023/01/26 13:41:18;;;;;;;23.87;16.47;;;;;;;;;;4417157;32;317840;-83
2023/01/26 13:43:50;;;;;;;33.17;19.50;;;;;;;;;;4404810;32;417469;-83
2023/01/26 13:46:24;;;;;;;32.90;21.37;;;;;;;;;;4418338;32;317689;-83
2023/01/26 13:48:51;;;;;;;36.60;21.90;;;;;;;;;;4405212;32;417208;-83
2023/01/26 13:51:26;;;;;;;38.27;23.70;;;;;;;;;;4418198;32;317910;-83
2023/01/26 13:54:02;;;;;;;38.53;26.00;;;;;;;;;;4405236;32;418042;-83
2023/01/26 13:56:32;;;;;;;50.03;29.70;;;;;;;;;;4408371;32;317752;-83
2023/01/26 13:59:07;;;;;;;28.13;19.83;;;;;;;;;;4416363;32;317840;-83
2023/01/26 14:01:34;;;;;;;27.83;19.57;;;;;;;;;;4407432;32;317559;-83
2023/01/26 14:04:05;;;;;;;21.37;15.47;;;;;;;;;;4418035;32;317845;-82
2023/01/26 14:06:34;;;;;;;23.67;16.30;;;;;;;;;;4407748;32;341370;-83
2023/01/26 14:09:05;;;;;;;28.37;17.73;;;;;;;;;;4416958;32;318294;-83
2023/01/26 14:11:34;;;;;;;13.37;9.77;;;;;;;;;;4408358;32;318458;-84
2023/01/26 14:14:02;;;;;;;14.90;10.13;;;;;;;;;;4416964;32;316701;-83
2023/01/26 14:16:31;;;;;;;12.83;10.10;;;;;;;;;;4406893;32;318092;-84
2023/01/26 14:19:06;;;;;;;12.83;9.57;;;;;;;;;;4416849;32;318173;-83
2023/01/26 14:21:33;;;;;;;14.00;10.00;;;;;;;;;;4407518;32;316668;-82
2023/01/26 14:24:00;;;;;;;13.70;10.80;;;;;;;;;;4416907;32;318493;-83
2023/01/26 14:26:32;;;;;;;16.90;11.33;;;;;;;;;;4408002;32;318749;-84
2023/01/26 14:29:01;;;;;;;16.10;11.27;;;;;;;;;;4418155;32;317891;-83
2023/01/26 14:31:29;;;;;;;29.57;19.77;;;;;;;;;;4408218;32;318421;-82
2023/01/26 14:33:57;;;;;;;24.67;18.90;;;;;;;;;;4418146;32;318359;-83
2023/01/26 14:36:26;;;;;;;21.40;14.10;;;;;;;;;;4404699;32;347284;-83
2023/01/26 14:38:55;;;;;;;26.80;16.53;;;;;;;;;;4417699;32;317414;-84
2023/01/26 14:41:24;;;;;;;27.27;15.40;;;;;;;;;;4406686;32;318307;-83
2023/01/26 14:43:54;;;;;;;35.13;19.93;;;;;;;;;;4417501;32;322343;-83
2023/01/26 14:46:25;;;;;;;45.37;23.93;;;;;;;;;;4408018;32;318876;-84
2023/01/26 14:48:58;;;;;;;51.30;28.93;;;;;;;;;;4416639;32;317743;-83
2023/01/26 14:51:27;;;;;;;59.80;34.63;;;;;;;;;;4406526;32;318556;-83
2023/01/26 14:53:57;;;;;;;46.10;29.83;;;;;;;;;;4416692;32;318000;-82
2023/01/26 14:56:32;;;;;;;35.77;23.97;;;;;;;;;;4407699;32;318455;-83
2023/01/26 14:59:01;;;;;;;41.40;27.60;;;;;;;;;;4417045;32;318172;-83
2023/01/26 15:01:29;;;;;;;44.53;28.40;;;;;;;;;;4407838;32;318505;-83
2023/01/26 15:04:00;;;;;;;46.67;28.53;;;;;;;;;;4417536;32;317760;-83
2023/01/26 15:06:29;;;;;;;46.03;30.87;;;;;;;;;;4407422;32;318431;-83
2023/01/26 15:09:02;;;;;;;52.87;32.20;;;;;;;;;;4417503;32;318802;-83
2023/01/26 15:14:47;;;;;;;44.13;29.03;;;;;;;;;;4417359;32;318369;-81
2023/01/26 15:17:28;;;;;;;43.90;29.03;;;;;;;;;;4405465;32;418100;-81
2023/01/26 15:19:55;;;;;;;47.10;29.77;;;;;;;;;;4407836;32;418189;-81